Time;durP1;ratioP1;P1;durP2;ratioP2;P2;SDS_P1;SDS_P2;PMS_P1;PMS_P2;Temp;Humidity;BMP_temperature;BMP_pressure;BME280_temperature;BME280_humidity;BME280_pressure;Samples;Min_cycle;Max_cycle;Signal;HPM_P1;HPM_P2
2023/08/28 00:02:14;;;;;;;4.70;3.33;;;;;;;16.02;94.66;100374.44;6153002;23;20364;-79
2023/08/28 00:04:44;;;;;;;3.90;3.30;;;;;;;16.02;91.56;100379.91;6178096;23;20386;-80
2023/08/28 00:07:14;;;;;;;3.97;3.27;;;;;;;15.92;92.37;100382.50;6178809;23;20349;-79
2023/08/28 00:09:44;;;;;;;5.73;3.07;;;;;;;15.77;93.26;100393.19;6178900;23;20417;-79
2023/08/28 00:12:13;;;;;;;3.27;2.97;;;;;;;15.68;94.98;100382.94;6179098;23;20358;-78
2023/08/28 00:14:43;;;;;;;2.90;2.70;;;;;;;15.73;94.75;100386.56;6152646;23;20376;-80
2023/08/28 00:17:12;;;;;;;2.67;2.30;;;;;;;15.71;93.12;100385.16;6173988;23;20472;-79
2023/08/28 00:19:43;;;;;;;4.23;3.50;;;;;;;15.67;93.48;100392.19;6149307;23;20897;-79
2023/08/28 00:22:12;;;;;;;3.30;2.73;;;;;;;15.60;92.84;100395.06;6168827;23;20398;-81
2023/08/28 00:24:42;;;;;;;5.43;3.13;;;;;;;15.55;93.03;100389.53;6161616;23;20476;-80
2023/08/28 00:27:11;;;;;;;2.67;2.47;;;;;;;15.47;94.01;100398.09;6173631;23;20351;-78
2023/08/28 00:29:41;;;;;;;2.93;2.10;;;;;;;15.47;94.34;100396.19;6178969;23;20393;-79
2023/08/28 00:32:10;;;;;;;4.40;2.90;;;;;;;15.43;94.81;100396.94;6152263;23;20453;-79
2023/08/28 00:34:40;;;;;;;3.40;3.10;;;;;;;15.41;95.38;100401.78;6141574;23;20460;-80
2023/08/28 00:37:12;;;;;;;3.23;2.40;;;;;;;15.32;95.98;100406.81;6163867;23;20360;-80
2023/08/28 00:39:41;;;;;;;6.20;3.17;;;;;;;15.22;96.45;100412.91;6135525;23;20613;-81
2023/08/28 00:42:10;;;;;;;4.43;3.73;;;;;;;15.11;96.89;100416.50;6164854;23;20367;-80
2023/08/28 00:44:40;;;;;;;2.53;2.20;;;;;;;15.16;96.88;100408.44;6136053;23;20471;-79
2023/08/28 00:47:10;;;;;;;2.20;1.90;;;;;;;15.06;97.13;100424.59;6136568;23;20410;-81
2023/08/28 00:49:40;;;;;;;3.37;2.40;;;;;;;15.03;97.59;100416.06;6139738;23;20399;-80
2023/08/28 00:52:12;;;;;;;3.60;2.70;;;;;;;15.02;97.77;100411.69;6164391;23;20950;-80
2023/08/28 00:54:42;;;;;;;3.53;2.60;;;;;;;14.89;98.27;100420.97;6162906;23;20375;-81
2023/08/28 00:57:13;;;;;;;2.60;2.20;;;;;;;14.83;98.75;100421.94;6156968;23;20349;-80
2023/08/28 00:59:44;;;;;;;2.50;2.30;;;;;;;14.82;98.21;100417.56;6131499;23;20454;-80
2023/08/28 01:02:13;;;;;;;2.83;2.07;;;;;;;14.84;97.95;100420.88;6130234;23;20416;-81
2023/08/28 01:04:43;;;;;;;3.07;2.10;;;;;;;14.73;98.47;100424.47;6158957;23;20407;-81
2023/08/28 01:07:22;;;;;;;2.60;2.40;;;;;;;14.73;98.02;100432.63;6132736;23;20406;-80
2023/08/28 01:10:04;;;;;;;2.37;2.17;;;;;;;14.56;99.03;100429.00;6159308;23;20837;-80
2023/08/28 01:12:41;;;;;;;2.30;2.10;;;;;;;14.59;98.76;100436.69;6135406;23;20405;-78
2023/08/28 01:15:16;;;;;;;2.67;2.33;;;;;;;14.52;99.36;100441.44;6138223;23;20436;-78
2023/08/28 01:17:49;;;;;;;2.70;2.23;;;;;;;14.51;99.59;100440.63;6137306;23;20387;-82
2023/08/28 01:20:20;;;;;;;4.83;2.50;;;;;;;14.39;99.80;100437.06;6160793;23;20763;-80
2023/08/28 01:23:02;;;;;;;2.53;2.33;;;;;;;14.40;99.76;100440.63;6160923;23;20415;-79
2023/08/28 01:25:34;;;;;;;2.50;2.30;;;;;;;14.36;100.00;100445.72;6157678;23;20396;-81
2023/08/28 01:28:04;;;;;;;3.10;2.37;;;;;;;14.28;100.00;100452.28;6131437;23;20479;-80
2023/08/28 01:30:33;;;;;;;2.77;2.50;;;;;;;14.31;100.00;100440.94;6131061;23;20417;-79
2023/08/28 01:33:02;;;;;;;2.60;2.40;;;;;;;14.27;100.00;100442.50;6159976;23;20431;-80
2023/08/28 01:35:33;;;;;;;3.50;2.53;;;;;;;14.14;100.00;100450.88;6134217;23;20380;-80
2023/08/28 01:38:20;;;;;;;2.30;2.10;;;;;;;14.13;100.00;100443.81;6161320;23;20381;-80
2023/08/28 01:40:56;;;;;;;3.60;2.40;;;;;;;14.09;100.00;100450.75;6161879;23;20405;-80
2023/08/28 01:43:29;;;;;;;2.77;2.47;;;;;;;13.98;100.00;100448.88;6162108;23;20367;-81
2023/08/28 01:45:59;;;;;;;2.37;2.17;;;;;;;13.97;100.00;100447.22;6161423;23;20414;-80
2023/08/28 01:48:34;;;;;;;3.83;2.60;;;;;;;13.81;100.00;100440.56;6137852;23;20834;-80
2023/08/28 01:51:03;;;;;;;2.47;2.17;;;;;;;13.80;100.00;100452.50;6142664;23;20473;-80
2023/08/28 01:53:32;;;;;;;3.50;3.20;;;;;;;13.82;100.00;100455.00;6175231;23;20405;-78
2023/08/28 01:56:24;;;;;;;2.90;2.40;;;;;;;13.87;100.00;100449.69;6152092;23;20398;-79
2023/08/28 01:58:56;;;;;;;3.70;2.30;;;;;;;13.85;100.00;100444.47;6179250;23;20364;-79
2023/08/28 02:01:27;;;;;;;2.60;2.40;;;;;;;13.80;100.00;100444.34;6148417;23;20376;-80
2023/08/28 02:03:57;;;;;;;3.70;2.70;;;;;;;13.84;100.00;100444.72;6138047;23;20408;-79
2023/08/28 02:06:26;;;;;;;3.60;2.87;;;;;;;13.85;100.00;100443.63;6139529;23;20448;-80
2023/08/28 02:08:55;;;;;;;2.63;2.43;;;;;;;13.73;100.00;100430.03;6140938;23;20427;-81
2023/08/28 02:11:29;;;;;;;3.00;2.80;;;;;;;13.73;100.00;100427.31;6161149;23;20427;-79
2023/08/28 02:13:58;;;;;;;3.37;3.07;;;;;;;13.66;100.00;100429.28;6162440;23;20424;-80
2023/08/28 02:16:28;;;;;;;3.07;2.53;;;;;;;13.63;100.00;100426.22;6142611;23;20409;-78
2023/08/28 02:18:57;;;;;;;5.10;3.00;;;;;;;13.57;100.00;100429.88;6145551;23;20425;-80
2023/08/28 02:21:26;;;;;;;3.43;3.13;;;;;;;13.57;100.00;100419.00;6150930;23;20400;-80
2023/08/28 02:23:55;;;;;;;3.60;3.30;;;;;;;13.43;100.00;100424.66;6176467;23;20453;-78
2023/08/28 02:26:25;;;;;;;4.43;3.33;;;;;;;13.60;100.00;100434.88;6175962;23;20415;-78
2023/08/28 02:28:56;;;;;;;3.83;3.40;;;;;;;13.48;100.00;100432.94;6175881;23;20413;-79
2023/08/28 02:31:25;;;;;;;2.70;2.50;;;;;;;13.36;100.00;100423.91;6143612;23;20664;-80
2023/08/28 02:33:53;;;;;;;3.97;3.57;;;;;;;13.35;100.00;100430.41;6135323;23;20380;-80
2023/08/28 02:36:22;;;;;;;3.10;2.80;;;;;;;13.21;100.00;100433.56;6135915;23;20384;-80
2023/08/28 02:38:51;;;;;;;3.30;3.00;;;;;;;13.19;100.00;100439.22;6167322;23;20380;-80
2023/08/28 02:41:20;;;;;;;3.43;3.10;;;;;;;13.22;100.00;100437.91;6149343;23;20489;-76
2023/08/28 02:43:50;;;;;;;4.20;3.53;;;;;;;13.11;100.00;100433.25;6175065;23;20453;-79
2023/08/28 02:46:20;;;;;;;3.93;3.63;;;;;;;13.12;100.00;100446.59;6150353;23;20407;-77
2023/08/28 02:48:49;;;;;;;3.40;3.10;;;;;;;13.17;100.00;100444.03;6176200;23;20763;-78
2023/08/28 02:51:18;;;;;;;3.10;2.77;;;;;;;13.19;100.00;100450.06;6153019;23;20414;-79
2023/08/28 02:53:48;;;;;;;3.57;3.27;;;;;;;13.06;100.00;100458.38;6155362;23;20373;-78
2023/08/28 02:56:25;;;;;;;3.47;3.27;;;;;;;13.07;100.00;100462.72;6156182;23;20372;-79
2023/08/28 02:58:55;;;;;;;4.60;4.17;;;;;;;13.07;100.00;100458.13;6181839;23;20437;-77
2023/08/28 03:01:25;;;;;;;5.40;3.60;;;;;;;13.14;100.00;100452.66;6180466;23;20368;-81
2023/08/28 03:03:55;;;;;;;3.30;3.00;;;;;;;13.15;100.00;100464.34;6137917;23;20732;-80
2023/08/28 03:06:25;;;;;;;3.73;3.07;;;;;;;13.15;100.00;100464.34;6144604;23;20436;-78
2023/08/28 03:08:54;;;;;;;3.60;3.30;;;;;;;13.17;100.00;100478.56;6143531;23;20825;-79
2023/08/28 03:11:23;;;;;;;3.77;2.90;;;;;;;13.13;100.00;100483.59;6140152;23;20873;-79
2023/08/28 03:13:53;;;;;;;8.43;4.10;;;;;;;12.98;100.00;100486.66;6135515;23;20398;-80
2023/08/28 03:16:22;;;;;;;3.20;2.90;;;;;;;13.03;100.00;100494.97;6130244;23;20748;-80
2023/08/28 03:18:53;;;;;;;3.20;2.97;;;;;;;13.04;100.00;100496.63;6156678;23;20913;-80
2023/08/28 03:21:22;;;;;;;5.10;3.60;;;;;;;13.12;100.00;100492.00;6157521;23;20829;-80
2023/08/28 03:23:52;;;;;;;3.27;2.97;;;;;;;13.14;100.00;100496.13;6130351;23;20395;-80
2023/08/28 03:26:22;;;;;;;6.87;3.77;;;;;;;13.20;100.00;100487.06;6130392;23;20570;-80
2023/08/28 03:28:51;;;;;;;6.33;3.43;;;;;;;13.13;100.00;100480.88;6158522;23;20384;-80
2023/08/28 03:31:20;;;;;;;3.73;3.43;;;;;;;13.18;100.00;100491.88;6164044;23;20361;-80
2023/08/28 03:33:49;;;;;;;4.00;3.10;;;;;;;13.09;100.00;100490.50;6163863;23;20390;-81
2023/08/28 03:36:20;;;;;;;3.97;3.57;;;;;;;13.15;100.00;100497.78;6133268;23;20407;-80
2023/08/28 03:38:50;;;;;;;3.77;3.47;;;;;;;13.18;100.00;100500.03;6131196;23;20491;-79
2023/08/28 03:41:19;;;;;;;5.83;3.40;;;;;;;13.13;100.00;100499.06;6131650;23;20431;-79
2023/08/28 03:43:48;;;;;;;4.73;3.87;;;;;;;13.14;100.00;100506.16;6158675;23;20365;-82
2023/08/28 03:46:17;;;;;;;4.03;3.63;;;;;;;13.23;100.00;100511.03;6142365;23;20407;-80
2023/08/28 03:48:46;;;;;;;4.27;3.87;;;;;;;13.24;100.00;100512.72;6173294;23;20392;-80
2023/08/28 03:51:15;;;;;;;4.97;3.83;;;;;;;13.16;100.00;100510.31;6139172;23;20488;-80
2023/08/28 03:53:46;;;;;;;5.50;4.10;;;;;;;13.14;100.00;100517.03;6149061;23;20380;-78
2023/08/28 03:56:16;;;;;;;4.60;3.37;;;;;;;13.12;100.00;100519.97;6152089;23;20364;-80
2023/08/28 03:58:45;;;;;;;4.37;3.97;;;;;;;13.08;100.00;100510.56;6171359;23;20389;-81
2023/08/28 04:01:15;;;;;;;4.53;4.13;;;;;;;13.12;100.00;100514.53;6163048;23;20490;-79
2023/08/28 04:03:44;;;;;;;6.23;5.63;;;;;;;13.15;100.00;100505.94;6162624;23;20455;-79
2023/08/28 04:06:14;;;;;;;4.47;4.07;;;;;;;13.06;100.00;100501.84;6135691;23;20427;-80
2023/08/28 04:08:43;;;;;;;5.90;4.23;;;;;;;13.01;100.00;100501.69;6162132;23;20409;-80
2023/08/28 04:11:13;;;;;;;5.80;5.00;;;;;;;13.01;100.00;100502.53;6135820;23;20405;-80
2023/08/28 04:13:43;;;;;;;5.87;5.27;;;;;;;13.06;100.00;100510.00;6162319;23;20348;-79
2023/08/28 04:16:12;;;;;;;6.40;4.87;;;;;;;13.08;100.00;100508.69;6135269;23;20961;-81
2023/08/28 04:18:41;;;;;;;11.10;4.30;;;;;;;13.12;100.00;100509.09;6135583;23;20428;-79
2023/08/28 04:21:10;;;;;;;6.20;5.00;;;;;;;13.14;100.00;100506.16;6135606;23;20420;-79
2023/08/28 04:23:39;;;;;;;6.20;4.23;;;;;;;13.17;100.00;100495.66;6135310;23;20413;-80
2023/08/28 04:26:08;;;;;;;5.57;4.67;;;;;;;13.34;100.00;100496.69;6138429;23;20385;-80
2023/08/28 04:28:39;;;;;;;5.53;4.80;;;;;;;13.36;100.00;100489.13;6165698;23;20421;-80
2023/08/28 04:31:10;;;;;;;8.37;4.40;;;;;;;13.40;100.00;100486.78;6136710;23;20749;-81
2023/08/28 04:33:39;;;;;;;7.70;5.23;;;;;;;13.62;100.00;100481.66;6136161;23;20406;-80
2023/08/28 04:36:09;;;;;;;4.23;3.90;;;;;;;13.58;100.00;100475.84;6143359;23;20465;-80
2023/08/28 04:38:38;;;;;;;8.47;4.93;;;;;;;13.90;100.00;100469.06;6148184;23;20425;-81
2023/08/28 04:41:08;;;;;;;5.07;4.60;;;;;;;14.46;97.82;100472.34;6147837;23;20383;-79
2023/08/28 04:43:39;;;;;;;5.10;4.57;;;;;;;15.21;91.53;100478.56;6149905;23;20403;-78
2023/08/28 04:46:08;;;;;;;6.93;4.77;;;;;;;15.70;87.64;100479.78;6148370;23;20388;-79
2023/08/28 04:48:38;;;;;;;7.80;4.80;;;;;;;16.29;83.61;100483.78;6148564;23;20429;-80
2023/08/28 04:51:07;;;;;;;5.83;4.77;;;;;;;17.00;79.81;100478.53;6148196;23;20475;-79
2023/08/28 04:53:36;;;;;;;5.13;4.40;;;;;;;17.45;76.95;100487.25;6172486;23;20352;-80
2023/08/28 04:56:05;;;;;;;4.23;3.80;;;;;;;17.86;74.45;100487.72;6150873;23;20380;-79
2023/08/28 04:58:34;;;;;;;7.30;3.97;;;;;;;18.39;71.77;100481.28;6152697;23;20416;-79
2023/08/28 05:01:05;;;;;;;5.30;4.23;;;;;;;18.51;70.40;100477.25;6153399;23;20420;-80
2023/08/28 05:03:34;;;;;;;6.73;3.90;;;;;;;18.93;68.79;100481.88;6178173;23;20421;-81
2023/08/28 05:06:03;;;;;;;6.60;3.90;;;;;;;18.97;67.63;100483.88;6172080;23;20376;-79
2023/08/28 05:08:33;;;;;;;4.90;4.37;;;;;;;19.25;67.33;100485.34;6163329;23;20451;-81
2023/08/28 05:11:04;;;;;;;5.67;4.97;;;;;;;18.71;67.67;100484.81;6138182;23;20408;-81
2023/08/28 05:13:33;;;;;;;4.27;3.80;;;;;;;17.85;71.72;100495.09;6137674;23;20372;-81
2023/08/28 05:16:05;;;;;;;5.80;4.17;;;;;;;16.75;77.15;100487.25;6143985;23;20479;-81
2023/08/28 05:18:34;;;;;;;8.33;4.90;;;;;;;15.90;82.08;100488.34;6137318;23;20512;-81
2023/08/28 05:21:03;;;;;;;5.67;3.93;;;;;;;15.68;85.26;100484.69;6136972;23;20384;-81
2023/08/28 05:23:33;;;;;;;5.37;4.80;;;;;;;15.44;85.59;100485.84;6136951;23;20427;-81
2023/08/28 05:26:02;;;;;;;6.20;5.17;;;;;;;15.29;87.54;100488.28;6163316;23;20427;-79
2023/08/28 05:28:35;;;;;;;10.00;5.33;;;;;;;15.08;88.57;100493.31;6139286;23;20476;-80
2023/08/28 05:31:06;;;;;;;5.83;5.33;;;;;;;15.05;89.27;100493.81;6164590;23;20357;-80
2023/08/28 05:33:36;;;;;;;6.93;6.23;;;;;;;15.27;89.27;100502.13;6142268;23;20429;-80
2023/08/28 05:36:06;;;;;;;8.67;5.73;;;;;;;15.30;88.83;100500.84;6147189;23;20384;-80
2023/08/28 05:38:35;;;;;;;6.63;5.00;;;;;;;15.49;88.88;100489.47;6150634;23;20732;-79
2023/08/28 05:41:04;;;;;;;5.40;4.90;;;;;;;15.70;86.51;100498.91;6146045;23;20407;-81
2023/08/28 05:43:33;;;;;;;9.63;5.80;;;;;;;15.80;86.15;100490.88;6137907;23;20405;-80
2023/08/28 05:46:03;;;;;;;6.40;5.80;;;;;;;15.87;85.48;100494.31;6144683;23;20480;-80
2023/08/28 05:48:33;;;;;;;8.73;6.17;;;;;;;15.81;85.60;100503.47;6136800;23;20449;-80
2023/08/28 05:51:03;;;;;;;6.40;5.80;;;;;;;15.88;85.13;100497.84;6136829;23;20413;-80
2023/08/28 05:53:32;;;;;;;8.83;5.97;;;;;;;15.89;85.49;100497.59;6135997;23;20470;-81
2023/08/28 05:56:01;;;;;;;9.70;7.07;;;;;;;15.73;85.19;100503.03;6136356;23;20394;-80
2023/08/28 05:58:30;;;;;;;8.23;7.37;;;;;;;15.62;85.38;100502.84;6162882;23;20380;-80
2023/08/28 06:01:00;;;;;;;7.00;5.80;;;;;;;15.64;85.82;100505.31;6162891;23;20859;-80
2023/08/28 06:03:29;;;;;;;6.90;6.20;;;;;;;15.58;85.28;100503.59;6135973;23;20429;-81
2023/08/28 06:06:00;;;;;;;7.40;5.30;;;;;;;15.74;85.14;100513.69;6137740;23;20392;-79
2023/08/28 06:08:32;;;;;;;7.97;6.40;;;;;;;15.86;84.68;100517.19;6137249;23;20453;-80
2023/08/28 06:11:01;;;;;;;7.50;6.80;;;;;;;16.14;83.50;100527.22;6136680;23;20391;-80
2023/08/28 06:13:30;;;;;;;8.37;6.40;;;;;;;16.27;81.66;100529.63;6162925;23;20380;-81
2023/08/28 06:16:00;;;;;;;5.13;4.63;;;;;;;16.26;82.26;100535.34;6164549;23;20459;-80
2023/08/28 06:18:29;;;;;;;7.80;5.53;;;;;;;16.24;82.36;100532.03;6163011;23;20376;-81
2023/08/28 06:20:59;;;;;;;7.33;5.33;;;;;;;16.35;82.88;100526.50;6136927;23;20376;-80
2023/08/28 06:23:28;;;;;;;6.87;4.80;;;;;;;16.41;81.39;100522.75;6162800;23;20357;-80
2023/08/28 06:25:58;;;;;;;9.77;5.60;;;;;;;16.52;81.47;100527.28;6137100;23;20553;-79
2023/08/28 06:28:27;;;;;;;7.07;4.33;;;;;;;16.50;80.33;100517.72;6135198;23;20445;-80
2023/08/28 06:30:56;;;;;;;7.10;6.03;;;;;;;16.51;80.47;100520.16;6135247;23;20376;-81
2023/08/28 06:33:25;;;;;;;5.40;4.50;;;;;;;16.35;79.35;100522.94;6135859;23;20422;-81
2023/08/28 06:35:54;;;;;;;6.53;4.30;;;;;;;16.57;80.45;100525.72;6162062;23;20440;-82
2023/08/28 06:38:27;;;;;;;7.37;4.87;;;;;;;16.84;79.25;100526.72;6163898;23;20430;-81
2023/08/28 06:40:56;;;;;;;4.60;4.20;;;;;;;17.18;78.01;100517.31;6163553;23;20369;-78
2023/08/28 06:43:26;;;;;;;7.50;5.20;;;;;;;17.45;76.43;100520.09;6163943;23;20388;-80
2023/08/28 06:45:55;;;;;;;7.00;4.20;;;;;;;17.49;75.20;100521.22;6165289;23;20397;-79
2023/08/28 06:48:24;;;;;;;5.03;4.50;;;;;;;17.20;75.87;100528.00;6162005;23;20429;-81
2023/08/28 06:50:53;;;;;;;4.30;3.90;;;;;;;17.22;75.91;100528.56;6163459;23;20460;-81
2023/08/28 06:53:22;;;;;;;7.83;4.30;;;;;;;17.44;75.25;100523.91;6162565;23;20386;-81
2023/08/28 06:55:52;;;;;;;6.23;3.80;;;;;;;17.86;74.45;100526.03;6164570;23;20370;-80
2023/08/28 06:58:22;;;;;;;4.43;3.97;;;;;;;18.15;73.21;100533.69;6164034;23;20850;-81
2023/08/28 07:00:51;;;;;;;5.60;4.40;;;;;;;18.07;73.00;100533.34;6165916;23;20371;-81
2023/08/28 07:03:20;;;;;;;12.57;4.77;;;;;;;18.15;73.02;100539.16;6137784;23;20391;-79
2023/08/28 07:05:49;;;;;;;5.13;3.90;;;;;;;18.39;71.49;100547.03;6140799;23;20380;-79
2023/08/28 07:08:18;;;;;;;5.80;4.80;;;;;;;18.54;71.29;100544.47;6166596;23;20411;-80
2023/08/28 07:10:47;;;;;;;7.47;2.90;;;;;;;18.57;70.38;100533.78;6135377;23;20797;-80
2023/08/28 07:13:18;;;;;;;4.63;3.33;;;;;;;18.85;69.26;100537.25;6133645;23;20416;-79
2023/08/28 07:15:56;;;;;;;6.53;3.50;;;;;;;18.45;69.88;100544.06;6157340;23;20380;-79
2023/08/28 07:18:26;;;;;;;6.60;3.00;;;;;;;18.35;70.97;100540.44;6155505;23;20427;-81
2023/08/28 07:20:55;;;;;;;5.23;3.20;;;;;;;18.35;70.81;100552.19;6158936;23;20704;-80
2023/08/28 07:23:36;;;;;;;5.73;3.47;;;;;;;18.41;69.58;100562.13;6129801;23;20453;-77
2023/08/28 07:26:09;;;;;;;3.83;2.70;;;;;;;18.57;69.83;100558.44;6133771;23;20395;-79
2023/08/28 07:31:33;;;;;;;4.67;3.53;;;;;;;18.33;70.97;100548.91;6160538;23;20402;-78
2023/08/28 07:34:04;;;;;;;3.40;3.10;;;;;;;18.59;70.12;100553.50;6163404;23;20393;-78
2023/08/28 07:36:35;;;;;;;5.40;2.90;;;;;;;18.54;70.02;100555.41;6165771;23;20421;-77
2023/08/28 07:39:04;;;;;;;5.03;3.20;;;;;;;18.41;69.99;100556.63;6166952;23;20405;-77
2023/08/28 07:41:33;;;;;;;6.20;2.90;;;;;;;18.33;70.44;100570.00;6164190;23;20372;-78
2023/08/28 07:44:04;;;;;;;4.63;2.80;;;;;;;18.39;70.19;100560.75;6165689;23;20470;-80
2023/08/28 07:46:33;;;;;;;4.10;3.00;;;;;;;18.73;69.10;100572.25;6164615;23;20360;-78
2023/08/28 07:49:03;;;;;;;4.67;3.30;;;;;;;18.94;67.95;100568.53;6160215;23;20433;-79
2023/08/28 07:51:35;;;;;;;3.53;2.53;;;;;;;18.71;68.93;100574.44;6160996;23;20345;-79
2023/08/28 07:54:04;;;;;;;3.37;2.90;;;;;;;18.76;68.37;100568.97;6159580;23;20874;-80
2023/08/28 07:56:33;;;;;;;4.20;3.23;;;;;;;18.38;69.42;100564.56;6160028;23;20411;-78
2023/08/28 07:59:06;;;;;;;5.57;2.70;;;;;;;18.19;71.16;100564.13;6160601;23;20415;-79
2023/08/28 08:01:37;;;;;;;2.70;2.30;;;;;;;18.32;70.85;100562.84;6160610;23;20885;-79
2023/08/28 08:04:08;;;;;;;3.50;2.10;;;;;;;18.66;70.03;100564.25;6158313;23;20357;-79
2023/08/28 08:06:37;;;;;;;5.70;2.70;;;;;;;18.67;69.11;100566.75;6161007;23;20378;-77
2023/08/28 08:09:06;;;;;;;4.53;2.20;;;;;;;18.88;68.33;100564.94;6136271;23;20453;-79
2023/08/28 08:11:37;;;;;;;2.87;2.53;;;;;;;19.02;67.84;100573.56;6161634;23;20378;-78
2023/08/28 08:14:08;;;;;;;3.03;2.47;;;;;;;18.54;69.25;100582.81;6172354;23;20356;-78
2023/08/28 08:16:37;;;;;;;9.33;2.60;;;;;;;18.14;70.26;100564.09;6174838;23;20355;-78
2023/08/28 08:19:06;;;;;;;6.73;2.37;;;;;;;18.15;70.92;100563.00;6172838;23;20481;-78
2023/08/28 08:21:36;;;;;;;5.73;2.27;;;;;;;17.96;70.83;100561.72;6164909;23;20761;-79
2023/08/28 08:24:06;;;;;;;4.23;2.37;;;;;;;18.30;71.21;100560.38;6132974;23;20443;-78
2023/08/28 08:26:35;;;;;;;4.07;2.30;;;;;;;18.34;69.85;100560.69;6162207;23;20833;-79
2023/08/28 08:29:04;;;;;;;3.90;2.50;;;;;;;18.43;69.63;100556.38;6161269;23;20429;-79
2023/08/28 08:31:35;;;;;;;3.53;2.40;;;;;;;18.52;68.67;100547.41;6136502;23;20459;-79
2023/08/28 08:34:04;;;;;;;4.50;2.93;;;;;;;18.71;67.77;100549.75;6160167;23;20352;-79
2023/08/28 08:36:33;;;;;;;7.17;2.40;;;;;;;19.01;66.54;100544.47;6162032;23;20386;-78
2023/08/28 08:39:03;;;;;;;4.20;2.80;;;;;;;19.19;65.65;100545.91;6163939;23;20376;-78
2023/08/28 08:41:32;;;;;;;4.30;2.93;;;;;;;19.21;65.60;100533.59;6139384;23;20398;-79
2023/08/28 08:44:01;;;;;;;9.07;3.20;;;;;;;19.43;64.29;100527.91;6162035;23;20364;-78
2023/08/28 08:46:30;;;;;;;2.63;2.20;;;;;;;19.80;63.90;100525.03;6178938;23;20377;-78
2023/08/28 08:49:04;;;;;;;4.00;2.70;;;;;;;19.96;63.24;100519.28;6179946;23;20415;-78
2023/08/28 08:51:35;;;;;;;5.93;2.20;;;;;;;20.25;62.71;100516.81;6178927;23;20380;-79
2023/08/28 08:54:10;;;;;;;3.73;2.63;;;;;;;20.03;62.46;100521.78;6179267;23;20381;-79
2023/08/28 08:56:41;;;;;;;3.60;2.20;;;;;;;20.16;61.85;100517.66;6180938;23;20344;-79
2023/08/28 08:59:11;;;;;;;3.47;1.90;;;;;;;20.14;62.09;100526.16;6180493;23;20401;-79
2023/08/28 09:01:41;;;;;;;3.40;2.60;;;;;;;20.17;60.90;100531.13;6180308;23;20365;-78
2023/08/28 09:04:12;;;;;;;5.30;2.73;;;;;;;19.97;61.45;100528.34;6177671;23;20378;-78
2023/08/28 09:06:43;;;;;;;6.30;2.60;;;;;;;19.88;62.04;100532.72;6179301;23;20374;-78
2023/08/28 09:09:36;;;;;;;7.40;2.63;;;;;;;20.04;62.42;100528.09;6178398;23;20467;-78
2023/08/28 09:12:06;;;;;;;3.90;2.10;;;;;;;20.44;61.08;100530.03;6179344;23;20417;-78
2023/08/28 09:14:40;;;;;;;4.70;1.83;;;;;;;20.30;60.78;100537.97;6176120;23;20410;-77
2023/08/28 09:17:09;;;;;;;3.13;1.63;;;;;;;20.17;60.70;100530.28;6179806;23;20377;-78
2023/08/28 09:19:40;;;;;;;2.30;2.10;;;;;;;20.24;61.59;100537.16;6178960;23;20403;-77
2023/08/28 09:22:10;;;;;;;6.07;2.60;;;;;;;20.47;61.45;100543.22;6181947;23;20362;-77
2023/08/28 09:24:40;;;;;;;4.53;2.43;;;;;;;20.29;60.72;100545.38;6180690;23;20355;-77
2023/08/28 09:27:14;;;;;;;6.93;2.50;;;;;;;20.15;60.14;100543.47;6181630;23;20348;-77
2023/08/28 09:29:43;;;;;;;4.90;2.20;;;;;;;20.02;61.24;100558.56;6177213;23;20411;-80
2023/08/28 09:32:12;;;;;;;2.30;1.93;;;;;;;19.93;62.46;100568.44;6163723;23;20817;-78
2023/08/28 09:34:43;;;;;;;3.10;1.73;;;;;;;20.19;60.84;100563.78;6137104;23;20739;-80
2023/08/28 09:37:12;;;;;;;3.30;2.23;;;;;;;20.38;60.32;100568.50;6137809;23;20380;-78
2023/08/28 09:39:41;;;;;;;3.50;2.13;;;;;;;19.91;60.80;100570.63;6162757;23;20485;-79
2023/08/28 09:42:11;;;;;;;2.20;1.50;;;;;;;20.04;61.96;100572.88;6163547;23;20477;-79
2023/08/28 09:44:40;;;;;;;5.90;2.00;;;;;;;19.93;61.75;100573.94;6135781;23;20894;-79
2023/08/28 09:47:12;;;;;;;1.90;1.70;;;;;;;20.20;60.14;100585.50;6160665;23;20398;-80
2023/08/28 09:49:45;;;;;;;2.67;1.60;;;;;;;20.38;59.73;100576.75;6136476;23;20456;-79
2023/08/28 09:52:14;;;;;;;2.90;1.70;;;;;;;20.41;59.52;100571.81;6157739;23;20374;-79
2023/08/28 09:54:45;;;;;;;1.90;1.40;;;;;;;20.30;59.79;100571.81;6159496;23;20850;-81
2023/08/28 09:57:18;;;;;;;3.00;2.20;;;;;;;20.59;59.82;100583.06;6160698;23;20390;-81
2023/08/28 09:59:47;;;;;;;2.53;2.10;;;;;;;20.57;58.59;100578.97;6164314;23;20410;-81
2023/08/28 10:02:22;;;;;;;2.83;1.63;;;;;;;20.01;59.75;100581.63;6135432;23;20464;-78
2023/08/28 10:04:54;;;;;;;2.10;1.70;;;;;;;20.02;60.47;100566.81;6164577;23;20439;-79
2023/08/28 10:07:24;;;;;;;3.20;1.70;;;;;;;20.05;60.98;100571.75;6161703;23;20470;-82
2023/08/28 10:09:57;;;;;;;2.90;1.77;;;;;;;20.33;59.75;100563.00;6157734;23;20401;-80
2023/08/28 10:12:30;;;;;;;3.30;1.90;;;;;;;20.70;59.57;100573.72;6157929;23;20380;-79
2023/08/28 10:15:04;;;;;;;2.07;1.73;;;;;;;20.70;58.36;100570.16;6156577;23;20822;-79
2023/08/28 10:17:35;;;;;;;4.50;2.00;;;;;;;21.00;57.92;100569.28;6157950;23;20352;-78
2023/08/28 10:20:09;;;;;;;3.53;1.90;;;;;;;20.80;57.84;100573.72;6157692;23;20933;-78
2023/08/28 10:22:39;;;;;;;3.20;1.60;;;;;;;20.79;58.05;100566.56;6158007;23;20359;-79
2023/08/28 10:25:09;;;;;;;3.80;1.87;;;;;;;21.31;56.91;100567.25;6156826;23;20770;-80
2023/08/28 10:27:38;;;;;;;3.50;2.27;;;;;;;21.64;55.66;100561.88;6157198;23;20374;-79
2023/08/28 10:30:09;;;;;;;2.77;1.70;;;;;;;21.81;55.82;100561.53;6159648;23;20903;-80
2023/08/28 10:32:39;;;;;;;4.20;2.70;;;;;;;21.64;55.40;100558.31;6159934;23;20369;-80
2023/08/28 10:35:11;;;;;;;4.03;2.00;;;;;;;21.71;55.90;100558.81;6158994;23;20374;-79
2023/08/28 10:37:41;;;;;;;3.17;1.90;;;;;;;22.15;54.62;100556.09;6158902;23;20378;-79
2023/08/28 10:40:12;;;;;;;7.07;1.73;;;;;;;22.44;53.93;100564.41;6159702;23;20341;-79
2023/08/28 10:42:42;;;;;;;3.67;1.87;;;;;;;22.31;53.18;100568.66;6161221;23;20348;-81
2023/08/28 10:45:12;;;;;;;5.83;1.77;;;;;;;22.02;53.77;100556.75;6158763;23;20349;-80
2023/08/28 10:47:48;;;;;;;3.30;1.70;;;;;;;21.70;54.56;100554.41;6157353;23;20365;-79
2023/08/28 10:50:19;;;;;;;4.23;2.00;;;;;;;21.86;54.59;100561.50;6158036;23;20421;-80
2023/08/28 10:52:48;;;;;;;9.60;2.03;;;;;;;22.06;53.53;100563.34;6159243;23;20374;-82
2023/08/28 10:55:19;;;;;;;2.13;1.53;;;;;;;21.90;53.90;100559.81;6166090;23;20394;-79
2023/08/28 10:57:50;;;;;;;3.57;1.40;;;;;;;22.36;52.97;100552.09;6167301;23;20348;-81
2023/08/28 11:00:21;;;;;;;3.07;2.00;;;;;;;21.95;53.11;100550.72;6160090;23;20398;-81
2023/08/28 11:03:08;;;;;;;3.00;1.47;;;;;;;22.27;52.16;100539.22;6160803;23;20370;-80
2023/08/28 11:05:40;;;;;;;3.73;1.87;;;;;;;22.30;52.12;100541.38;6159111;23;20360;-81
2023/08/28 11:08:11;;;;;;;4.63;1.70;;;;;;;21.99;52.30;100547.09;6158787;23;20493;-79
2023/08/28 11:10:47;;;;;;;3.20;1.30;;;;;;;22.18;52.28;100527.13;6134169;23;20461;-80
2023/08/28 11:13:25;;;;;;;2.53;1.40;;;;;;;22.32;52.48;100533.63;6163186;23;20697;-80
2023/08/28 11:16:04;;;;;;;6.23;1.60;;;;;;;22.30;51.46;100541.38;6170889;23;20370;-80
2023/08/28 11:18:39;;;;;;;2.10;1.33;;;;;;;21.97;51.58;100537.50;6170305;23;20450;-79
2023/08/28 11:21:10;;;;;;;2.20;1.10;;;;;;;21.52;53.31;100535.81;6172662;23;20369;-81
2023/08/28 11:23:42;;;;;;;2.47;1.40;;;;;;;21.36;54.66;100545.22;6145477;23;20406;-80
2023/08/28 11:26:27;;;;;;;3.10;1.17;;;;;;;21.49;53.84;100548.22;6175655;23;20349;-82
2023/08/28 11:28:59;;;;;;;4.77;2.23;;;;;;;21.43;54.56;100551.25;6177925;23;20453;-84
2023/08/28 11:31:33;;;;;;;2.70;1.27;;;;;;;21.48;54.22;100545.75;6135868;23;20470;-69
2023/08/28 11:34:13;;;;;;;8.00;2.20;;;;;;;21.38;53.56;100541.09;6159373;23;20759;-68
2023/08/28 11:36:45;;;;;;;4.70;1.60;;;;;;;21.12;54.40;100548.59;6142228;23;20479;-66
2023/08/28 11:39:22;;;;;;;5.70;1.17;;;;;;;21.14;55.10;100551.94;6156263;23;20345;-67
2023/08/28 11:41:52;;;;;;;4.90;1.90;;;;;;;21.37;54.20;100557.91;6131114;23;20429;-68